Terminal Aerodrome Forecast
Issued by NWS

Home | Current Version | Previous Version | Graphics & Text | Print | Product List | Glossary On
Versions: 1 2 3 4 5 6 7 8 9 10 11 12 13 14 15 16 17 18 19 20 21 22 23 24 25 26 27 28 29 30 31 32 33
000
FTUS43 KLOT 310900 AAA
TAFDPA
TAF AMD
KDPA 310900Z 3109/0106 02014G22KT P6SM BKN015 OVC040
     FM311400 03015G25KT P6SM SCT025 BKN250
     FM312100 02014G21KT P6SM BKN250
     FM010100 03008KT P6SM FEW250=

USA.gov is the U.S. government's official web portal to all federal, state and local government web resources and services.